createdAt,value
2022-11-07T00:00:32.060Z,975.92
2022-11-07T00:01:02.829Z,975.92
2022-11-07T00:01:34.236Z,976.02
2022-11-07T00:02:06.388Z,976.02
2022-11-07T00:02:38.202Z,976.02
2022-11-07T00:03:10.217Z,976.23
2022-11-07T00:03:42.263Z,976.23
2022-11-07T00:04:14.181Z,976.12
2022-11-07T00:04:46.029Z,976.12
2022-11-07T00:05:18.311Z,975.92
2022-11-07T00:05:50.017Z,975.92
2022-11-07T00:06:22.138Z,976.12
2022-11-07T00:06:53.805Z,976.12
2022-11-07T00:07:10.069Z,976.23
2022-11-07T00:07:42.112Z,976.23
2022-11-07T00:08:26.139Z,976.23
2022-11-07T00:08:57.990Z,976.23
2022-11-07T00:09:29.788Z,976.12
2022-11-07T00:10:02.910Z,976.12
2022-11-07T00:10:33.715Z,976.02
2022-11-07T00:11:05.809Z,976.02
2022-11-07T00:11:37.765Z,976.02
2022-11-07T00:12:09.715Z,976.23
2022-11-07T00:12:25.825Z,976.23
2022-11-07T00:12:57.745Z,976.23
2022-11-07T00:13:41.821Z,976.02
2022-11-07T00:14:13.551Z,976.02
2022-11-07T00:14:45.720Z,976.02
2022-11-07T00:15:18.454Z,976.23
2022-11-07T00:15:49.718Z,976.23
2022-11-07T00:16:21.671Z,976.23
2022-11-07T00:16:53.528Z,976.23
2022-11-07T00:17:09.671Z,976.12
2022-11-07T00:17:53.551Z,976.12
2022-11-07T00:18:25.411Z,976.33
2022-11-07T00:18:57.786Z,976.33
2022-11-07T00:19:29.504Z,976.33
2022-11-07T00:20:02.636Z,976.33
2022-11-07T00:20:33.470Z,976.43
2022-11-07T00:21:05.302Z,976.43
2022-11-07T00:21:37.306Z,976.33
2022-11-07T00:22:09.377Z,976.23
2022-11-07T00:22:41.551Z,976.23
2022-11-07T00:23:13.576Z,976.33
2022-11-07T00:23:45.216Z,976.33
2022-11-07T00:24:17.433Z,976.43
2022-11-07T00:24:49.282Z,976.43
2022-11-07T00:25:21.471Z,976.43
2022-11-07T00:25:53.296Z,976.43
2022-11-07T00:26:25.145Z,976.33
2022-11-07T00:26:57.439Z,976.33
2022-11-07T00:27:29.069Z,976.43
2022-11-07T00:28:01.304Z,976.43
2022-11-07T00:28:35.194Z,976.33
2022-11-07T00:29:05.084Z,976.33
2022-11-07T00:29:36.884Z,976.33
2022-11-07T00:30:09.679Z,976.33
2022-11-07T00:30:25.075Z,976.23
2022-11-07T00:30:57.347Z,976.23
2022-11-07T00:31:41.296Z,976.43
2022-11-07T00:32:13.022Z,976.43
2022-11-07T00:32:29.073Z,976.43
2022-11-07T00:33:01.044Z,976.43
2022-11-07T00:33:44.863Z,976.33
2022-11-07T00:34:17.008Z,976.23
2022-11-07T00:34:48.778Z,976.23
2022-11-07T00:35:20.947Z,976.53
2022-11-07T00:35:52.779Z,976.53
2022-11-07T00:36:24.776Z,976.53
2022-11-07T00:36:56.753Z,976.53
2022-11-07T00:37:28.711Z,976.53
2022-11-07T00:38:00.782Z,976.53
2022-11-07T00:38:32.799Z,976.53
2022-11-07T00:39:04.553Z,976.53
2022-11-07T00:39:36.618Z,976.43
2022-11-07T00:40:08.775Z,976.43
2022-11-07T00:40:40.717Z,976.23
2022-11-07T00:41:12.673Z,976.63
2022-11-07T00:41:44.424Z,976.63
2022-11-07T00:42:16.489Z,976.43
2022-11-07T00:42:48.575Z,976.43
2022-11-07T00:43:20.346Z,976.53
2022-11-07T00:43:52.454Z,976.53
2022-11-07T00:44:08.633Z,976.53
2022-11-07T00:44:40.314Z,976.53
2022-11-07T00:44:56.621Z,976.53
2022-11-07T00:45:28.579Z,976.63
2022-11-07T00:46:00.247Z,976.63
2022-11-07T00:46:32.412Z,976.43
2022-11-07T00:47:04.389Z,976.43
2022-11-07T00:47:36.291Z,976.63
2022-11-07T00:48:08.324Z,976.63
2022-11-07T00:48:24.305Z,976.73
2022-11-07T00:48:56.237Z,976.73
2022-11-07T00:49:40.209Z,976.43
2022-11-07T00:50:12.353Z,976.53
2022-11-07T00:50:44.061Z,976.53
2022-11-07T00:51:16.195Z,976.53
2022-11-07T00:51:48.182Z,976.53
2022-11-07T00:52:19.875Z,976.53
2022-11-07T00:52:52.105Z,976.53
2022-11-07T00:53:08.266Z,976.53
2022-11-07T00:53:52.121Z,976.43
2022-11-07T00:54:24.085Z,976.53
2022-11-07T00:54:55.936Z,976.53
2022-11-07T00:55:28.207Z,976.84
2022-11-07T00:55:59.877Z,976.84
2022-11-07T00:56:32.099Z,976.73
2022-11-07T00:57:04.242Z,976.73
2022-11-07T00:57:35.900Z,976.84
2022-11-07T00:58:13.398Z,976.84
2022-11-07T00:58:39.901Z,976.63
2022-11-07T00:59:11.896Z,976.73
2022-11-07T00:59:43.657Z,976.73
2022-11-07T01:00:17.061Z,976.63
2022-11-07T01:00:47.973Z,976.63
2022-11-07T01:01:19.648Z,976.63
2022-11-07T01:01:51.881Z,976.63
2022-11-07T01:02:23.728Z,976.73
2022-11-07T01:02:55.924Z,976.73
2022-11-07T01:03:27.605Z,976.53
2022-11-07T01:03:59.603Z,976.53
2022-11-07T01:04:31.597Z,976.73
2022-11-07T01:05:04.258Z,976.73
2022-11-07T01:05:35.424Z,976.63
2022-11-07T01:06:07.522Z,976.63
2022-11-07T01:06:23.495Z,976.63
2022-11-07T01:06:55.304Z,976.63
2022-11-07T01:07:39.516Z,976.73
2022-11-07T01:08:11.364Z,976.73
2022-11-07T01:08:27.643Z,976.73
2022-11-07T01:08:59.542Z,976.73
2022-11-07T01:09:43.307Z,976.73
2022-11-07T01:10:15.628Z,976.73
2022-11-07T01:10:47.203Z,976.73
2022-11-07T01:11:19.201Z,976.63
2022-11-07T01:11:51.408Z,976.63
2022-11-07T01:12:23.191Z,976.73
2022-11-07T01:12:55.119Z,976.73
2022-11-07T01:13:27.284Z,976.63
2022-11-07T01:13:59.240Z,976.63
2022-11-07T01:14:31.204Z,976.73
2022-11-07T01:15:06.109Z,976.73
2022-11-07T01:15:35.009Z,976.73
2022-11-07T01:16:07.181Z,976.73
2022-11-07T01:16:39.065Z,976.73
2022-11-07T01:16:55.155Z,976.73
2022-11-07T01:17:27.198Z,976.63
2022-11-07T01:18:11.006Z,976.84
2022-11-07T01:18:43.291Z,976.84
2022-11-07T01:19:14.774Z,976.53
2022-11-07T01:19:46.947Z,976.53
2022-11-07T01:20:19.196Z,976.53
2022-11-07T01:20:50.919Z,976.53
2022-11-07T01:21:22.757Z,976.63
2022-11-07T01:21:38.998Z,976.63
2022-11-07T01:22:22.724Z,976.63
2022-11-07T01:22:38.931Z,976.63
2022-11-07T01:23:22.791Z,976.63
2022-11-07T01:23:54.766Z,976.63
2022-11-07T01:24:26.632Z,976.73
2022-11-07T01:24:58.692Z,976.73
2022-11-07T01:25:30.971Z,976.84
2022-11-07T01:26:03.768Z,976.84
2022-11-07T01:26:34.491Z,976.53
2022-11-07T01:27:06.748Z,976.53
2022-11-07T01:27:38.709Z,976.73
2022-11-07T01:28:10.609Z,976.63
2022-11-07T01:28:42.614Z,976.63
2022-11-07T01:29:14.592Z,976.53
2022-11-07T01:29:46.521Z,976.53
2022-11-07T01:30:18.941Z,976.73
2022-11-07T01:30:50.363Z,976.73
2022-11-07T01:31:06.580Z,976.73
2022-11-07T01:31:50.384Z,976.63
2022-11-07T01:32:22.673Z,976.84
2022-11-07T01:32:54.490Z,976.84
2022-11-07T01:33:26.328Z,976.53
2022-11-07T01:33:58.429Z,976.53
2022-11-07T01:34:30.419Z,976.73
2022-11-07T01:35:03.520Z,976.73
2022-11-07T01:35:34.229Z,976.63
2022-11-07T01:36:06.518Z,976.63
2022-11-07T01:36:38.585Z,976.63
2022-11-07T01:37:10.409Z,976.53
2022-11-07T01:37:42.380Z,976.53
2022-11-07T01:38:14.140Z,976.73
2022-11-07T01:38:46.354Z,976.73
2022-11-07T01:39:18.312Z,976.73
2022-11-07T01:39:50.001Z,976.73
2022-11-07T01:40:22.439Z,976.73
2022-11-07T01:40:54.172Z,976.73
2022-11-07T01:41:26.139Z,976.43
2022-11-07T01:41:58.247Z,976.43
2022-11-07T01:42:29.942Z,976.53
2022-11-07T01:43:02.772Z,976.53
2022-11-07T01:43:34.055Z,976.63
2022-11-07T01:44:05.946Z,976.63
2022-11-07T01:44:22.215Z,976.43
2022-11-07T01:44:53.763Z,976.43
2022-11-07T01:45:38.272Z,976.63
2022-11-07T01:46:09.795Z,976.63
2022-11-07T01:46:41.654Z,976.63
2022-11-07T01:47:13.727Z,976.53
2022-11-07T01:47:45.808Z,976.53
2022-11-07T01:48:17.836Z,976.63
2022-11-07T01:48:49.692Z,976.63
2022-11-07T01:49:06.091Z,976.63
2022-11-07T01:49:49.695Z,976.53
2022-11-07T01:50:24.782Z,976.53
2022-11-07T01:50:53.512Z,976.53
2022-11-07T01:51:25.516Z,976.53
2022-11-07T01:51:57.770Z,976.53
2022-11-07T01:52:29.627Z,976.63
2022-11-07T01:53:01.966Z,976.63
2022-11-07T01:53:33.540Z,976.43
2022-11-07T01:54:05.791Z,976.43
2022-11-07T01:54:37.816Z,976.63
2022-11-07T01:55:09.640Z,976.63
2022-11-07T01:55:41.437Z,976.63
2022-11-07T01:56:13.594Z,976.63
2022-11-07T01:56:45.556Z,976.63
2022-11-07T01:57:17.274Z,976.73
2022-11-07T01:57:49.403Z,976.73
2022-11-07T01:58:21.523Z,976.53
2022-11-07T01:58:53.431Z,976.53
2022-11-07T01:59:25.230Z,976.43
2022-11-07T01:59:57.278Z,976.43
2022-11-07T02:00:29.552Z,976.63
2022-11-07T02:01:01.681Z,976.63
2022-11-07T02:01:33.386Z,976.63
2022-11-07T02:02:05.444Z,976.63
2022-11-07T02:02:37.525Z,976.63
2022-11-07T02:03:09.286Z,976.63
2022-11-07T02:03:40.975Z,976.73
2022-11-07T02:04:13.074Z,976.73
2022-11-07T02:04:45.245Z,976.73
2022-11-07T02:05:17.405Z,976.73
2022-11-07T02:05:48.930Z,976.73
2022-11-07T02:06:05.118Z,976.73
2022-11-07T02:06:49.039Z,976.73
2022-11-07T02:07:20.865Z,976.53
2022-11-07T02:07:52.960Z,976.53
2022-11-07T02:08:24.868Z,976.63
2022-11-07T02:08:57.014Z,976.63
2022-11-07T02:09:28.904Z,976.63
2022-11-07T02:10:01.410Z,976.63
2022-11-07T02:10:32.749Z,976.63
2022-11-07T02:11:04.829Z,976.63
2022-11-07T02:11:36.776Z,976.73
2022-11-07T02:12:08.845Z,976.73
2022-11-07T02:12:40.698Z,976.94
2022-11-07T02:13:13.128Z,976.84
2022-11-07T02:13:44.633Z,976.84
2022-11-07T02:14:16.822Z,976.53
2022-11-07T02:14:48.639Z,976.53
2022-11-07T02:15:20.799Z,976.84
2022-11-07T02:15:52.711Z,976.84
2022-11-07T02:16:24.840Z,976.53
2022-11-07T02:16:56.430Z,976.53
2022-11-07T02:17:28.666Z,976.53
2022-11-07T02:18:00.585Z,976.53
2022-11-07T02:18:32.662Z,976.63
2022-11-07T02:19:04.767Z,976.63
2022-11-07T02:19:20.440Z,976.53
2022-11-07T02:19:52.458Z,976.53
2022-11-07T02:20:36.821Z,976.63
2022-11-07T02:21:08.427Z,976.63
2022-11-07T02:21:40.252Z,976.63
2022-11-07T02:22:12.480Z,976.43
2022-11-07T02:22:44.301Z,976.43
2022-11-07T02:23:16.794Z,976.43
2022-11-07T02:23:48.376Z,976.43
2022-11-07T02:24:04.744Z,976.43
2022-11-07T02:24:48.186Z,976.63
2022-11-07T02:25:20.396Z,976.33
2022-11-07T02:25:52.329Z,976.33
2022-11-07T02:26:24.060Z,976.53
2022-11-07T02:26:56.063Z,976.53
2022-11-07T02:27:28.099Z,976.33
2022-11-07T02:28:00.141Z,976.33
2022-11-07T02:28:32.153Z,976.43
2022-11-07T02:29:04.379Z,976.43
2022-11-07T02:29:36.743Z,976.33
2022-11-07T02:30:12.264Z,976.33
2022-11-07T02:30:39.913Z,976.73
2022-11-07T02:31:11.917Z,976.73
2022-11-07T02:31:43.903Z,976.73
2022-11-07T02:32:15.931Z,976.73
2022-11-07T02:32:47.857Z,976.73
2022-11-07T02:33:04.307Z,976.73
2022-11-07T02:33:35.763Z,976.43
2022-11-07T02:33:52.041Z,976.43
2022-11-07T02:34:23.897Z,976.53
2022-11-07T02:34:55.997Z,976.53
2022-11-07T02:35:27.951Z,976.53
2022-11-07T02:35:59.775Z,976.53
2022-11-07T02:36:31.850Z,976.63
2022-11-07T02:37:04.175Z,976.63
2022-11-07T02:37:19.751Z,976.53
2022-11-07T02:37:51.891Z,976.53
2022-11-07T02:38:35.657Z,976.43
2022-11-07T02:39:07.976Z,976.43
2022-11-07T02:39:39.539Z,976.53
2022-11-07T02:40:11.724Z,976.63
2022-11-07T02:40:43.651Z,976.63
2022-11-07T02:41:15.703Z,976.63
2022-11-07T02:41:47.435Z,976.63
2022-11-07T02:42:04.131Z,976.63
2022-11-07T02:42:47.575Z,976.63
2022-11-07T02:43:19.452Z,976.63
2022-11-07T02:43:51.677Z,976.63
2022-11-07T02:44:23.308Z,976.53
2022-11-07T02:44:55.398Z,976.53
2022-11-07T02:45:27.885Z,976.63
2022-11-07T02:45:59.433Z,976.63
2022-11-07T02:46:31.265Z,976.73
2022-11-07T02:47:04.091Z,976.73
2022-11-07T02:47:35.166Z,976.73
2022-11-07T02:48:07.443Z,976.73
2022-11-07T02:48:39.112Z,976.53
2022-11-07T02:49:11.182Z,976.73
2022-11-07T02:49:43.196Z,976.73
2022-11-07T02:50:15.499Z,976.73
2022-11-07T02:50:47.218Z,976.73
2022-11-07T02:51:04.249Z,976.73
2022-11-07T02:51:35.179Z,976.63
2022-11-07T02:52:19.052Z,976.53
2022-11-07T02:52:51.240Z,976.53
2022-11-07T02:53:23.139Z,976.63
2022-11-07T02:53:54.899Z,976.63
2022-11-07T02:54:27.032Z,976.53
2022-11-07T02:54:59.111Z,976.53
2022-11-07T02:55:31.209Z,976.43
2022-11-07T02:56:03.635Z,976.43
2022-11-07T02:56:34.899Z,976.53
2022-11-07T02:57:06.939Z,976.53
2022-11-07T02:57:38.789Z,976.53
2022-11-07T02:58:10.888Z,976.63
2022-11-07T02:58:42.873Z,976.63
2022-11-07T02:59:14.717Z,976.63
2022-11-07T02:59:46.762Z,976.63
2022-11-07T03:00:19.135Z,976.73
2022-11-07T03:00:50.640Z,976.73
2022-11-07T03:01:23.110Z,976.73
2022-11-07T03:01:54.809Z,976.73
2022-11-07T03:02:26.788Z,976.53
2022-11-07T03:02:58.848Z,976.53
2022-11-07T03:03:30.608Z,976.63
2022-11-07T03:04:03.040Z,976.63
2022-11-07T03:04:18.693Z,976.63
2022-11-07T03:05:03.872Z,976.63
2022-11-07T03:05:34.565Z,976.53
2022-11-07T03:06:06.755Z,976.53
2022-11-07T03:06:38.430Z,976.53
2022-11-07T03:07:10.537Z,976.53
2022-11-07T03:07:42.570Z,976.53
2022-11-07T03:08:14.457Z,976.43
2022-11-07T03:08:46.439Z,976.43
2022-11-07T03:09:18.438Z,976.73
2022-11-07T03:09:50.348Z,976.73
2022-11-07T03:11:26.393Z,976.33
2022-11-07T03:11:58.471Z,976.33
2022-11-07T03:12:30.208Z,976.63
2022-11-07T03:13:02.982Z,976.63
2022-11-07T03:13:34.242Z,976.73
2022-11-07T03:14:06.197Z,976.73
2022-11-07T03:14:38.339Z,976.53
2022-11-07T03:15:11.151Z,976.43
2022-11-07T03:15:42.237Z,976.43
2022-11-07T03:16:14.169Z,976.43
2022-11-07T03:16:46.209Z,976.43
2022-11-07T03:17:18.059Z,976.73
2022-11-07T03:17:34.212Z,976.73
2022-11-07T03:18:06.018Z,976.73
2022-11-07T03:18:50.036Z,976.84
2022-11-07T03:19:21.979Z,976.63
2022-11-07T03:19:53.899Z,976.63
2022-11-07T03:20:26.139Z,976.63
2022-11-07T03:20:58.065Z,976.63
2022-11-07T03:21:29.870Z,976.63
2022-11-07T03:22:02.246Z,976.63
2022-11-07T03:22:17.943Z,976.43
2022-11-07T03:23:02.419Z,976.43
2022-11-07T03:23:33.960Z,976.63
2022-11-07T03:24:05.792Z,976.63
2022-11-07T03:24:37.801Z,976.63
2022-11-07T03:25:09.991Z,976.43
2022-11-07T03:25:41.794Z,976.43
2022-11-07T03:26:13.638Z,976.63
2022-11-07T03:26:45.716Z,976.63
2022-11-07T03:27:02.386Z,976.63
2022-11-07T03:27:33.588Z,976.33
2022-11-07T03:27:49.641Z,976.33
2022-11-07T03:28:21.535Z,976.53
2022-11-07T03:28:53.579Z,976.53
2022-11-07T03:29:25.576Z,976.63
2022-11-07T03:29:57.605Z,976.63
2022-11-07T03:30:29.712Z,976.63
2022-11-07T03:31:01.673Z,976.63
2022-11-07T03:31:17.718Z,976.33
2022-11-07T03:31:49.297Z,976.33
2022-11-07T03:32:33.492Z,976.33
2022-11-07T03:33:05.508Z,976.33
2022-11-07T03:33:37.545Z,976.53
2022-11-07T03:34:09.318Z,976.53
2022-11-07T03:34:41.301Z,976.63
2022-11-07T03:35:13.530Z,976.63
2022-11-07T03:35:45.086Z,976.63
2022-11-07T03:36:01.491Z,976.63
2022-11-07T03:36:45.115Z,976.63
2022-11-07T03:37:17.467Z,976.63
2022-11-07T03:37:49.185Z,976.63
2022-11-07T03:38:21.054Z,976.53
2022-11-07T03:38:53.314Z,976.53
2022-11-07T03:39:26.091Z,976.33
2022-11-07T03:39:56.864Z,976.33
2022-11-07T03:40:29.412Z,976.73
2022-11-07T03:41:01.013Z,976.73
2022-11-07T03:41:33.173Z,976.63
2022-11-07T03:42:05.214Z,976.63
2022-11-07T03:42:36.975Z,976.63
2022-11-07T03:43:09.028Z,976.63
2022-11-07T03:43:40.955Z,976.73
2022-11-07T03:44:12.888Z,976.53
2022-11-07T03:44:44.814Z,976.53
2022-11-07T03:45:18.330Z,976.53
2022-11-07T03:45:49.087Z,976.53
2022-11-07T03:46:20.657Z,976.53
2022-11-07T03:46:52.856Z,976.53
2022-11-07T03:47:24.731Z,976.73
2022-11-07T03:47:56.786Z,976.73
2022-11-07T03:48:28.801Z,976.63
2022-11-07T03:49:00.604Z,976.63
2022-11-07T03:49:16.963Z,976.53
2022-11-07T03:49:48.670Z,976.53
2022-11-07T03:50:33.048Z,976.63
2022-11-07T03:51:04.903Z,976.63
2022-11-07T03:51:36.504Z,976.73
2022-11-07T03:52:08.757Z,976.73
2022-11-07T03:52:40.502Z,976.53
2022-11-07T03:53:13.020Z,976.63
2022-11-07T03:53:44.499Z,976.63
2022-11-07T03:54:00.630Z,976.63
2022-11-07T03:54:44.562Z,976.53
2022-11-07T03:55:16.846Z,976.73
2022-11-07T03:55:48.391Z,976.73
2022-11-07T03:56:20.275Z,976.53
2022-11-07T03:56:52.614Z,976.53
2022-11-07T03:57:24.343Z,976.53
2022-11-07T03:57:56.115Z,976.53
2022-11-07T03:58:28.368Z,976.63
2022-11-07T03:59:00.314Z,976.63
2022-11-07T03:59:32.376Z,976.84
2022-11-07T04:00:06.473Z,976.84
2022-11-07T04:00:36.102Z,976.73
2022-11-07T04:01:08.425Z,976.73
2022-11-07T04:01:40.274Z,976.73
2022-11-07T04:02:12.154Z,976.73
2022-11-07T04:02:44.274Z,976.73
2022-11-07T04:03:00.346Z,976.73
2022-11-07T04:03:32.294Z,976.84
2022-11-07T04:03:48.834Z,976.84
2022-11-07T04:04:19.936Z,976.84
2022-11-07T04:04:52.051Z,976.84
2022-11-07T04:05:24.455Z,976.73
2022-11-07T04:05:55.945Z,976.73
2022-11-07T04:06:27.926Z,976.84
2022-11-07T04:06:59.898Z,976.84
2022-11-07T04:07:15.977Z,976.73
2022-11-07T04:07:48.092Z,976.73
2022-11-07T04:08:32.067Z,976.73
2022-11-07T04:09:04.530Z,976.73
2022-11-07T04:09:35.877Z,976.73
2022-11-07T04:10:08.205Z,976.73
2022-11-07T04:10:39.839Z,976.73
2022-11-07T04:11:11.643Z,976.73
2022-11-07T04:11:43.921Z,976.73
2022-11-07T04:12:00.185Z,976.73
2022-11-07T04:12:43.892Z,976.53
2022-11-07T04:13:16.099Z,976.73
2022-11-07T04:13:47.647Z,976.73
2022-11-07T04:14:19.659Z,976.84
2022-11-07T04:14:51.697Z,976.84
2022-11-07T04:15:24.135Z,976.84
2022-11-07T04:15:55.452Z,976.84
2022-11-07T04:16:27.489Z,976.73
2022-11-07T04:16:59.732Z,976.73
2022-11-07T04:17:31.638Z,976.84
2022-11-07T04:18:04.132Z,976.84
2022-11-07T04:18:35.457Z,977.04
2022-11-07T04:19:07.631Z,977.04
2022-11-07T04:19:39.444Z,976.94
2022-11-07T04:20:11.533Z,977.14
2022-11-07T04:20:43.409Z,977.14
2022-11-07T04:21:15.186Z,976.73
2022-11-07T04:21:47.342Z,976.73
2022-11-07T04:22:19.409Z,976.84
2022-11-07T04:22:51.143Z,976.84
2022-11-07T04:23:07.507Z,976.84
2022-11-07T04:23:39.211Z,976.63
2022-11-07T04:24:23.531Z,976.73
2022-11-07T04:24:55.045Z,976.73
2022-11-07T04:25:27.363Z,976.84
2022-11-07T04:25:59.260Z,976.84
2022-11-07T04:26:31.188Z,976.73
2022-11-07T04:27:03.947Z,976.73
2022-11-07T04:27:35.034Z,976.84
2022-11-07T04:28:07.125Z,976.84
2022-11-07T04:28:39.132Z,976.84
2022-11-07T04:29:10.926Z,976.73
2022-11-07T04:29:43.051Z,976.73
2022-11-07T04:29:59.342Z,976.73
2022-11-07T04:30:43.446Z,977.04
2022-11-07T04:31:15.074Z,976.94
2022-11-07T04:31:46.817Z,976.94
2022-11-07T04:32:18.968Z,976.94
2022-11-07T04:32:50.974Z,976.94
2022-11-07T04:33:23.249Z,977.04
2022-11-07T04:33:54.655Z,977.04
2022-11-07T04:34:26.745Z,976.84
2022-11-07T04:34:59.040Z,976.84
2022-11-07T04:35:30.942Z,976.94
2022-11-07T04:36:03.913Z,976.94
2022-11-07T04:36:34.691Z,976.84
2022-11-07T04:37:06.600Z,976.84
2022-11-07T04:37:38.926Z,976.73
2022-11-07T04:38:10.595Z,976.94
2022-11-07T04:38:42.602Z,976.94
2022-11-07T04:39:14.704Z,976.94
2022-11-07T04:39:46.719Z,976.94
2022-11-07T04:40:18.686Z,976.94
2022-11-07T04:40:50.489Z,976.94
2022-11-07T04:41:22.582Z,976.84
2022-11-07T04:41:54.492Z,976.84
2022-11-07T04:42:26.277Z,976.84
2022-11-07T04:42:58.618Z,976.84
2022-11-07T04:43:30.367Z,976.84
2022-11-07T04:44:03.302Z,976.84
2022-11-07T04:44:34.338Z,976.73
2022-11-07T04:45:07.424Z,976.73
2022-11-07T04:45:38.445Z,976.73
2022-11-07T04:46:10.438Z,977.04
2022-11-07T04:46:42.383Z,977.04
2022-11-07T04:47:14.251Z,976.73
2022-11-07T04:47:46.224Z,976.73
2022-11-07T04:48:18.448Z,976.94
2022-11-07T04:48:50.079Z,976.94
2022-11-07T04:49:22.089Z,976.73
2022-11-07T04:49:54.176Z,976.73
2022-11-07T04:50:26.329Z,976.73
2022-11-07T04:50:58.267Z,976.73
2022-11-07T04:51:30.010Z,977.04
2022-11-07T04:51:46.128Z,977.04
2022-11-07T04:52:18.077Z,976.94
2022-11-07T04:53:02.902Z,976.94
2022-11-07T04:53:33.937Z,976.94
2022-11-07T04:54:06.027Z,976.94
2022-11-07T04:54:38.290Z,976.73
2022-11-07T04:55:10.232Z,976.94
2022-11-07T04:55:41.731Z,976.94
2022-11-07T04:56:13.930Z,977.14
2022-11-07T04:56:45.777Z,977.14
2022-11-07T04:57:18.109Z,977.04
2022-11-07T04:57:49.724Z,977.04
2022-11-07T04:58:05.922Z,977.04
2022-11-07T04:58:37.959Z,977.04
2022-11-07T04:59:21.749Z,976.84
2022-11-07T04:59:53.824Z,976.84
2022-11-07T05:00:30.975Z,977.04
2022-11-07T05:00:57.730Z,977.04
2022-11-07T05:01:13.903Z,976.94
2022-11-07T05:01:45.650Z,976.94
2022-11-07T05:02:29.757Z,976.63
2022-11-07T05:03:02.024Z,976.63
2022-11-07T05:03:18.204Z,977.04
2022-11-07T05:03:49.511Z,977.04
2022-11-07T05:04:33.738Z,977.14
2022-11-07T05:05:05.869Z,977.14
2022-11-07T05:05:37.386Z,976.94
2022-11-07T05:06:09.504Z,976.94
2022-11-07T05:06:41.411Z,977.14
2022-11-07T05:07:13.571Z,976.94
2022-11-07T05:07:45.417Z,976.94
2022-11-07T05:08:17.638Z,977.14
2022-11-07T05:08:49.385Z,977.14
2022-11-07T05:09:21.392Z,977.14
2022-11-07T05:09:53.319Z,977.14
2022-11-07T05:10:25.507Z,977.04
2022-11-07T05:10:57.420Z,977.04
2022-11-07T05:11:29.512Z,977.04
2022-11-07T05:12:01.178Z,977.04
2022-11-07T05:12:33.330Z,976.94
2022-11-07T05:13:05.259Z,976.94
2022-11-07T05:13:37.064Z,976.94
2022-11-07T05:14:09.300Z,976.94
2022-11-07T05:14:41.093Z,976.94
2022-11-07T05:15:14.257Z,977.14
2022-11-07T05:15:45.021Z,977.14
2022-11-07T05:16:16.999Z,976.84
2022-11-07T05:16:49.122Z,976.84
2022-11-07T05:17:24.332Z,976.84
2022-11-07T05:17:53.182Z,976.84
2022-11-07T05:18:24.914Z,977.04
2022-11-07T05:18:56.960Z,977.04
2022-11-07T05:19:29.091Z,976.94
2022-11-07T05:20:01.217Z,976.94
2022-11-07T05:20:32.966Z,976.84
2022-11-07T05:21:05.100Z,976.84
2022-11-07T05:21:36.899Z,976.73
2022-11-07T05:22:08.978Z,976.73
2022-11-07T05:22:40.717Z,976.94
2022-11-07T05:22:56.876Z,976.94
2022-11-07T05:23:40.826Z,977.14
2022-11-07T05:24:12.778Z,977.04
2022-11-07T05:24:44.740Z,977.04
2022-11-07T05:25:16.973Z,977.04
2022-11-07T05:25:48.833Z,977.04
2022-11-07T05:26:20.726Z,977.14
2022-11-07T05:26:52.607Z,977.14
2022-11-07T05:27:24.585Z,976.73
2022-11-07T05:27:56.673Z,976.73
2022-11-07T05:28:36.926Z,976.94
2022-11-07T05:28:44.684Z,976.94
2022-11-07T05:29:16.603Z,976.84
2022-11-07T05:30:01.150Z,976.84
2022-11-07T05:30:32.754Z,976.94
2022-11-07T05:31:04.751Z,976.94
2022-11-07T05:31:36.555Z,977.04
2022-11-07T05:32:08.683Z,977.04
2022-11-07T05:32:40.406Z,976.94
2022-11-07T05:33:12.619Z,977.04
2022-11-07T05:33:28.547Z,977.04
2022-11-07T05:34:14.721Z,977.14
2022-11-07T05:34:44.529Z,977.14
2022-11-07T05:35:16.514Z,977.21
2022-11-07T05:35:48.490Z,977.21
2022-11-07T05:36:20.248Z,977.21
2022-11-07T05:36:52.193Z,977.21
2022-11-07T05:37:24.260Z,977.14
2022-11-07T05:37:56.123Z,977.14
2022-11-07T05:38:12.268Z,977.21
2022-11-07T05:38:44.147Z,977.21
2022-11-07T05:39:28.376Z,977.04
2022-11-07T05:40:00.457Z,977.04
2022-11-07T05:40:32.084Z,977.04
2022-11-07T05:41:04.660Z,977.04
2022-11-07T05:41:36.116Z,976.94
2022-11-07T05:42:08.318Z,976.94
2022-11-07T05:42:39.943Z,977.14
2022-11-07T05:42:56.059Z,977.14
2022-11-07T05:43:39.939Z,977.04
2022-11-07T05:44:11.996Z,977.21
2022-11-07T05:44:43.890Z,977.21
2022-11-07T05:45:17.456Z,977.14
2022-11-07T05:45:48.050Z,977.14
2022-11-07T05:46:19.744Z,977.14
2022-11-07T05:46:51.918Z,977.14
2022-11-07T05:47:23.749Z,977.21
2022-11-07T05:47:55.649Z,977.21
2022-11-07T05:48:27.934Z,977.21
2022-11-07T05:49:01.261Z,977.21
2022-11-07T05:49:31.552Z,977.14
2022-11-07T05:50:04.903Z,977.14
2022-11-07T05:50:35.788Z,977.31
2022-11-07T05:51:07.803Z,977.31
2022-11-07T05:51:39.620Z,977.04
2022-11-07T05:52:11.653Z,977.31
2022-11-07T05:52:43.657Z,977.31
2022-11-07T05:53:16.057Z,977.21
2022-11-07T05:53:47.758Z,977.21
2022-11-07T05:54:04.560Z,977.21
2022-11-07T05:54:35.418Z,977.14
2022-11-07T05:55:19.748Z,977.14
2022-11-07T05:55:51.288Z,977.14
2022-11-07T05:56:23.425Z,977.04
2022-11-07T05:56:55.367Z,977.04
2022-11-07T05:57:27.607Z,977.14
2022-11-07T05:58:05.746Z,977.14
2022-11-07T05:58:31.281Z,977.14
2022-11-07T05:59:04.557Z,977.14
2022-11-07T05:59:35.361Z,977.31
2022-11-07T06:00:08.532Z,977.31
2022-11-07T06:00:39.459Z,977.14
2022-11-07T06:00:55.545Z,977.14
2022-11-07T06:01:39.286Z,977.14
2022-11-07T06:02:11.258Z,977.31
2022-11-07T06:02:43.178Z,977.31
2022-11-07T06:03:15.444Z,977.31
2022-11-07T06:03:47.156Z,977.31
2022-11-07T06:04:19.434Z,977.21
2022-11-07T06:04:50.930Z,977.21
2022-11-07T06:05:24.480Z,977.41
2022-11-07T06:05:55.029Z,977.41
2022-11-07T06:06:27.024Z,977.41
2022-11-07T06:06:59.303Z,977.41
2022-11-07T06:07:30.914Z,977.41
2022-11-07T06:08:03.717Z,977.41
2022-11-07T06:08:34.813Z,977.51
2022-11-07T06:09:06.736Z,977.51
2022-11-07T06:09:38.873Z,977.31
2022-11-07T06:10:11.002Z,977.31
2022-11-07T06:10:42.867Z,977.31
2022-11-07T06:11:14.846Z,977.21
2022-11-07T06:11:46.665Z,977.21
2022-11-07T06:12:18.946Z,977.21
2022-11-07T06:12:56.053Z,977.21
2022-11-07T06:13:22.774Z,977.31
2022-11-07T06:13:54.611Z,977.31
2022-11-07T06:14:10.653Z,977.21
2022-11-07T06:14:42.766Z,977.21
2022-11-07T06:15:26.991Z,977.21
2022-11-07T06:15:58.830Z,977.21
2022-11-07T06:16:30.495Z,977.41
2022-11-07T06:17:03.417Z,977.41
2022-11-07T06:17:34.519Z,977.21
2022-11-07T06:18:06.215Z,977.21
2022-11-07T06:18:41.585Z,977.04
2022-11-07T06:19:10.336Z,977.21
2022-11-07T06:19:42.593Z,977.21
2022-11-07T06:20:14.951Z,977.21
2022-11-07T06:20:46.475Z,977.21
2022-11-07T06:21:18.756Z,977.04
2022-11-07T06:21:50.469Z,977.04
2022-11-07T06:22:22.570Z,977.04
2022-11-07T06:22:54.478Z,977.04
2022-11-07T06:23:10.535Z,977.04
2022-11-07T06:23:54.480Z,977.04
2022-11-07T06:24:26.612Z,977.04
2022-11-07T06:24:58.432Z,977.04
2022-11-07T06:25:30.492Z,977.04
2022-11-07T06:26:03.235Z,977.04
2022-11-07T06:26:34.480Z,977.21
2022-11-07T06:27:06.410Z,977.21
2022-11-07T06:27:38.223Z,977.31
2022-11-07T06:27:54.363Z,977.31
2022-11-07T06:28:26.089Z,977.41
2022-11-07T06:28:42.284Z,977.41
2022-11-07T06:29:14.318Z,977.14
2022-11-07T06:29:46.138Z,977.14
2022-11-07T06:30:18.702Z,977.41
2022-11-07T06:30:50.070Z,977.41
2022-11-07T06:31:22.161Z,977.51
2022-11-07T06:31:54.085Z,977.51
2022-11-07T06:32:10.105Z,977.21
2022-11-07T06:32:42.033Z,977.21
2022-11-07T06:33:26.200Z,977.04
2022-11-07T06:33:58.326Z,977.04
2022-11-07T06:34:30.013Z,977.14